createdAt,value
2018-06-11T00:00:57.750Z,99.99
2018-06-11T00:01:58.313Z,99.99
2018-06-11T00:02:58.855Z,99.99
2018-06-11T00:03:59.406Z,99.99
2018-06-11T00:04:59.956Z,99.99
2018-06-11T00:06:00.502Z,99.99
2018-06-11T00:07:01.051Z,99.99
2018-06-11T00:08:01.601Z,99.99
2018-06-11T00:09:02.154Z,99.99
2018-06-11T00:10:02.707Z,99.99
2018-06-11T00:11:03.256Z,99.99
2018-06-11T00:12:03.809Z,99.99
2018-06-11T00:13:04.358Z,99.99
2018-06-11T00:14:04.903Z,99.99
2018-06-11T00:15:05.453Z,99.99
2018-06-11T00:16:06.003Z,99.99
2018-06-11T00:17:06.557Z,99.99
2018-06-11T00:18:07.106Z,99.99
2018-06-11T00:19:07.657Z,99.99
2018-06-11T00:20:08.205Z,99.99
2018-06-11T00:21:08.757Z,99.99
2018-06-11T00:22:09.314Z,99.99
2018-06-11T00:23:09.863Z,99.99
2018-06-11T00:24:10.414Z,99.99
2018-06-11T00:25:10.965Z,99.99
2018-06-11T00:26:11.516Z,99.99
2018-06-11T00:27:12.067Z,99.99
2018-06-11T00:28:12.619Z,99.99
2018-06-11T00:29:13.173Z,99.99
2018-06-11T00:30:13.723Z,99.99
2018-06-11T00:31:14.268Z,99.99
2018-06-11T00:32:14.824Z,99.99
2018-06-11T00:33:15.374Z,99.99
2018-06-11T00:34:15.929Z,99.99
2018-06-11T00:35:16.478Z,99.99
2018-06-11T00:36:17.031Z,99.99
2018-06-11T00:37:17.584Z,99.99
2018-06-11T00:38:18.132Z,99.99
2018-06-11T00:39:18.682Z,99.99
2018-06-11T00:40:19.239Z,99.99
2018-06-11T00:41:19.785Z,99.99
2018-06-11T00:42:20.334Z,99.99
2018-06-11T00:43:20.885Z,99.99
2018-06-11T00:44:21.438Z,99.99
2018-06-11T00:45:21.983Z,99.99
2018-06-11T00:46:22.536Z,99.99
2018-06-11T00:47:23.287Z,99.99
2018-06-11T00:48:23.838Z,99.99
2018-06-11T00:49:24.385Z,99.99
2018-06-11T00:50:24.936Z,99.99
2018-06-11T00:51:25.486Z,99.99
2018-06-11T00:52:26.039Z,99.99
2018-06-11T00:53:26.585Z,99.99
2018-06-11T00:54:27.136Z,99.99
2018-06-11T00:55:27.688Z,99.99
2018-06-11T00:56:28.238Z,99.99
2018-06-11T00:57:28.793Z,99.99
2018-06-11T00:58:29.333Z,99.99
2018-06-11T00:59:29.882Z,99.99
2018-06-11T01:00:30.433Z,99.99
2018-06-11T01:01:30.981Z,99.99
2018-06-11T01:02:31.534Z,99.99
2018-06-11T01:03:32.084Z,99.99
2018-06-11T01:04:32.637Z,99.99
2018-06-11T01:05:33.189Z,99.99
2018-06-11T01:06:33.744Z,99.99
2018-06-11T01:07:34.288Z,99.99
2018-06-11T01:08:34.839Z,99.99
2018-06-11T01:09:35.388Z,99.99
2018-06-11T01:10:35.940Z,99.99
2018-06-11T01:11:36.492Z,99.99
2018-06-11T01:12:37.038Z,99.99
2018-06-11T01:13:37.592Z,99.99
2018-06-11T01:14:38.139Z,99.99
2018-06-11T01:15:38.689Z,99.99
2018-06-11T01:16:39.243Z,99.99
2018-06-11T01:17:39.793Z,99.99
2018-06-11T01:18:40.343Z,99.99
2018-06-11T01:19:40.891Z,99.99
2018-06-11T01:20:41.440Z,99.99
2018-06-11T01:21:41.987Z,99.99
2018-06-11T01:22:42.526Z,99.99
2018-06-11T01:23:43.067Z,99.99
2018-06-11T01:24:43.618Z,99.99
2018-06-11T01:25:44.170Z,99.99
2018-06-11T01:26:44.720Z,99.99
2018-06-11T01:27:45.266Z,99.99
2018-06-11T01:28:45.820Z,99.99
2018-06-11T01:29:46.369Z,99.99
2018-06-11T01:30:46.924Z,99.99
2018-06-11T01:31:47.466Z,99.99
2018-06-11T01:32:48.021Z,99.99
2018-06-11T01:33:48.573Z,99.99
2018-06-11T01:34:49.127Z,99.99
2018-06-11T01:35:49.679Z,99.99
2018-06-11T01:36:50.228Z,99.99
2018-06-11T01:37:50.777Z,99.99
2018-06-11T01:38:51.326Z,99.99
2018-06-11T01:39:51.878Z,99.99
2018-06-11T01:40:52.428Z,99.99
2018-06-11T01:41:52.975Z,99.99
2018-06-11T01:42:53.525Z,99.99
2018-06-11T01:43:54.076Z,99.99
2018-06-11T01:44:54.629Z,99.99
2018-06-11T01:45:55.181Z,99.99
2018-06-11T01:46:55.729Z,99.99
2018-06-11T01:47:56.281Z,99.99
2018-06-11T01:48:56.832Z,99.99
2018-06-11T01:49:57.387Z,99.99
2018-06-11T01:50:57.938Z,99.99
2018-06-11T01:51:58.484Z,99.99
2018-06-11T01:52:59.036Z,99.99
2018-06-11T01:53:59.586Z,99.99
2018-06-11T01:55:00.141Z,99.99
2018-06-11T01:56:00.690Z,99.99
2018-06-11T01:57:01.237Z,99.99
2018-06-11T01:58:01.789Z,99.99
2018-06-11T01:59:02.341Z,99.99
2018-06-11T02:00:02.892Z,99.99
2018-06-11T02:01:03.442Z,99.99
2018-06-11T02:02:03.994Z,99.99
2018-06-11T02:03:04.545Z,99.99
2018-06-11T02:04:05.095Z,99.99
2018-06-11T02:05:05.644Z,99.99
2018-06-11T02:06:06.191Z,99.99
2018-06-11T02:07:06.745Z,99.99
2018-06-11T02:08:07.296Z,99.99
2018-06-11T02:09:07.854Z,99.99
2018-06-11T02:10:08.403Z,99.99
2018-06-11T02:11:08.947Z,99.99
2018-06-11T02:12:09.505Z,99.99
2018-06-11T02:13:10.051Z,99.99
2018-06-11T02:14:10.604Z,99.99
2018-06-11T02:15:11.151Z,99.99
2018-06-11T02:16:11.701Z,99.99
2018-06-11T02:17:12.252Z,99.99
2018-06-11T02:18:12.796Z,99.99
2018-06-11T02:19:13.342Z,99.99
2018-06-11T02:20:13.894Z,99.99
2018-06-11T02:21:14.444Z,99.99
2018-06-11T02:22:14.991Z,99.99
2018-06-11T02:23:15.540Z,99.99
2018-06-11T02:24:16.084Z,99.99
2018-06-11T02:25:16.634Z,99.99
2018-06-11T02:26:17.191Z,99.99
2018-06-11T02:27:17.740Z,99.99
2018-06-11T02:28:18.288Z,99.99
2018-06-11T02:29:18.842Z,99.99
2018-06-11T02:30:19.397Z,99.99
2018-06-11T02:31:19.945Z,99.99
2018-06-11T02:32:20.499Z,99.99
2018-06-11T02:33:21.056Z,99.99
2018-06-11T02:34:21.609Z,99.99
2018-06-11T02:35:22.151Z,99.99
2018-06-11T02:36:22.700Z,99.99
2018-06-11T02:37:23.251Z,99.99
2018-06-11T02:38:23.798Z,99.99
2018-06-11T02:39:24.348Z,99.99
2018-06-11T02:40:24.898Z,99.99
2018-06-11T02:41:25.455Z,99.99
2018-06-11T02:42:25.997Z,99.99
2018-06-11T02:43:26.541Z,99.99
2018-06-11T02:44:27.093Z,99.99
2018-06-11T02:45:27.645Z,99.99
2018-06-11T02:46:28.190Z,99.99
2018-06-11T02:47:28.744Z,99.99
2018-06-11T02:48:29.298Z,99.99
2018-06-11T02:49:29.844Z,99.99
2018-06-11T02:50:30.386Z,99.99
2018-06-11T02:51:30.936Z,99.99
2018-06-11T02:52:31.486Z,99.99
2018-06-11T02:53:32.037Z,99.99
2018-06-11T02:54:32.590Z,99.99
2018-06-11T02:55:33.137Z,99.99
2018-06-11T02:56:33.688Z,99.99
2018-06-11T02:57:34.239Z,99.99
2018-06-11T02:58:34.791Z,99.99
2018-06-11T02:59:35.338Z,99.99
2018-06-11T03:00:35.884Z,99.99
2018-06-11T03:01:36.436Z,99.99
2018-06-11T03:02:36.983Z,99.99
2018-06-11T03:03:37.537Z,99.99
2018-06-11T03:04:38.082Z,99.99
2018-06-11T03:05:38.639Z,99.99
2018-06-11T03:06:39.187Z,99.99
2018-06-11T03:07:39.744Z,99.99
2018-06-11T03:08:40.292Z,99.99
2018-06-11T03:09:40.842Z,99.99
2018-06-11T03:10:41.393Z,99.99
2018-06-11T03:11:41.946Z,99.99
2018-06-11T03:12:42.498Z,99.99
2018-06-11T03:13:43.053Z,99.99
2018-06-11T03:14:43.603Z,99.99
2018-06-11T03:15:44.161Z,99.99
2018-06-11T03:16:44.711Z,99.99
2018-06-11T03:17:45.269Z,99.99
2018-06-11T03:18:45.825Z,99.99
2018-06-11T03:19:46.377Z,99.99
2018-06-11T03:20:46.927Z,99.99
2018-06-11T03:21:47.479Z,99.99
2018-06-11T03:22:48.034Z,99.99
2018-06-11T03:23:48.587Z,99.99
2018-06-11T03:24:49.137Z,99.99
2018-06-11T03:25:49.686Z,99.99
2018-06-11T03:26:50.239Z,99.99
2018-06-11T03:27:50.792Z,99.99
2018-06-11T03:28:51.345Z,99.99
2018-06-11T03:29:51.898Z,99.99
2018-06-11T03:30:52.446Z,99.99
2018-06-11T03:31:52.999Z,99.99
2018-06-11T03:32:53.548Z,99.99
2018-06-11T03:33:54.105Z,99.99
2018-06-11T03:34:54.659Z,99.99
2018-06-11T03:35:55.214Z,99.99
2018-06-11T03:36:55.765Z,99.99
2018-06-11T03:37:56.316Z,99.99
2018-06-11T03:38:56.867Z,99.99
2018-06-11T03:39:57.421Z,99.99
2018-06-11T03:40:57.977Z,99.99
2018-06-11T03:41:58.535Z,99.99
2018-06-11T03:42:59.091Z,99.99
2018-06-11T03:43:59.646Z,99.99
2018-06-11T03:45:00.204Z,99.99
2018-06-11T03:46:00.754Z,99.99
2018-06-11T03:47:01.309Z,99.99
2018-06-11T03:48:01.858Z,99.99
2018-06-11T03:49:02.411Z,99.99
2018-06-11T03:50:02.965Z,99.99
2018-06-11T03:51:03.520Z,99.99
2018-06-11T03:52:04.082Z,99.99
2018-06-11T03:53:04.642Z,99.99
2018-06-11T03:54:05.210Z,99.99
2018-06-11T03:55:05.769Z,99.99
2018-06-11T03:56:06.337Z,99.99
2018-06-11T03:57:06.887Z,99.99
2018-06-11T03:58:07.451Z,99.99
2018-06-11T03:59:08.012Z,99.99
2018-06-11T04:00:08.565Z,99.99
2018-06-11T04:01:09.118Z,99.99
2018-06-11T04:02:09.677Z,99.99
2018-06-11T04:03:10.236Z,99.99
2018-06-11T04:04:10.800Z,99.99
2018-06-11T04:05:11.361Z,99.99
2018-06-11T04:06:11.917Z,99.99
2018-06-11T04:07:12.479Z,99.99
2018-06-11T04:08:13.041Z,99.99
2018-06-11T04:09:13.600Z,99.99
2018-06-11T04:10:14.157Z,99.99
2018-06-11T04:11:14.759Z,99.99
2018-06-11T04:12:15.271Z,99.99
2018-06-11T04:13:15.835Z,99.99
2018-06-11T04:14:16.400Z,99.99
2018-06-11T04:15:16.967Z,99.99
2018-06-11T04:16:17.530Z,99.99
2018-06-11T04:17:18.093Z,99.99
2018-06-11T04:18:18.656Z,99.99
2018-06-11T04:19:19.209Z,99.99
2018-06-11T04:20:19.766Z,99.99
2018-06-11T04:21:20.333Z,99.99
2018-06-11T04:22:20.892Z,99.99
2018-06-11T04:23:21.448Z,99.99
2018-06-11T04:24:22.013Z,99.99
2018-06-11T04:25:22.577Z,99.99
2018-06-11T04:26:23.134Z,99.99
2018-06-11T04:27:23.696Z,99.99
2018-06-11T04:28:24.263Z,99.99
2018-06-11T04:29:24.821Z,99.99
2018-06-11T04:30:25.374Z,99.99
2018-06-11T04:31:25.930Z,99.99
2018-06-11T04:32:26.483Z,99.99
2018-06-11T04:33:27.040Z,99.99
2018-06-11T04:34:27.597Z,99.99
2018-06-11T04:35:28.148Z,99.99
2018-06-11T04:36:28.710Z,99.99
2018-06-11T04:37:29.275Z,99.99
2018-06-11T04:38:29.837Z,99.99
2018-06-11T04:39:30.402Z,99.99
2018-06-11T04:40:30.968Z,99.99
2018-06-11T04:41:31.530Z,99.99
2018-06-11T04:42:32.086Z,99.99
2018-06-11T04:43:32.644Z,99.99
2018-06-11T04:44:33.198Z,99.99
2018-06-11T04:45:33.756Z,99.99
2018-06-11T04:46:34.315Z,99.99
2018-06-11T04:47:34.870Z,99.99
2018-06-11T04:48:35.422Z,99.99
2018-06-11T04:49:35.983Z,99.99
2018-06-11T04:50:36.545Z,99.99
2018-06-11T04:51:37.110Z,99.99
2018-06-11T04:52:37.672Z,99.99
2018-06-11T04:53:38.225Z,99.99
2018-06-11T04:54:38.777Z,99.99
2018-06-11T04:55:39.335Z,99.99
2018-06-11T04:56:39.890Z,99.99
2018-06-11T04:57:40.447Z,99.99
2018-06-11T04:58:41.000Z,99.99
2018-06-11T04:59:41.556Z,99.99
2018-06-11T05:00:42.109Z,99.99
2018-06-11T05:01:42.666Z,99.99
2018-06-11T05:02:43.224Z,99.99
2018-06-11T05:03:43.777Z,99.99
2018-06-11T05:04:44.332Z,99.99
2018-06-11T05:05:44.888Z,99.99
2018-06-11T05:06:45.445Z,99.99
2018-06-11T05:07:46.002Z,99.99
2018-06-11T05:08:46.556Z,99.99
2018-06-11T05:09:47.115Z,99.99
2018-06-11T05:10:47.677Z,99.99
2018-06-11T05:11:48.233Z,99.99
2018-06-11T05:12:48.791Z,99.99
2018-06-11T05:13:49.345Z,99.99
2018-06-11T05:14:49.902Z,99.99
2018-06-11T05:15:50.450Z,99.99
2018-06-11T05:16:51.003Z,99.99
2018-06-11T05:17:51.561Z,99.99
2018-06-11T05:18:52.116Z,99.99
2018-06-11T05:19:52.675Z,99.99
2018-06-11T05:20:53.233Z,99.99
2018-06-11T05:21:53.791Z,99.99
2018-06-11T05:22:54.348Z,99.99
2018-06-11T05:23:54.902Z,99.99
2018-06-11T05:24:55.458Z,99.99
2018-06-11T05:25:56.014Z,99.99
2018-06-11T05:26:56.567Z,99.99
2018-06-11T05:27:57.121Z,99.99
2018-06-11T05:28:57.682Z,99.99
2018-06-11T05:29:58.238Z,99.99
2018-06-11T05:30:58.796Z,99.99
2018-06-11T05:31:59.358Z,99.99
2018-06-11T05:32:59.921Z,99.99
2018-06-11T05:34:00.473Z,99.99
2018-06-11T05:35:01.032Z,99.99
2018-06-11T05:36:01.587Z,99.99
2018-06-11T05:37:02.146Z,99.99
2018-06-11T05:38:02.784Z,99.99
2018-06-11T05:39:03.311Z,99.99
2018-06-11T05:40:03.871Z,99.99
2018-06-11T05:41:04.429Z,99.99
2018-06-11T05:42:04.989Z,99.68
2018-06-11T05:43:05.543Z,99.99
2018-06-11T05:44:06.103Z,99.99
2018-06-11T05:45:06.665Z,99.68
2018-06-11T05:46:07.225Z,99.58
2018-06-11T05:47:07.780Z,99.87
2018-06-11T05:48:08.337Z,99.73
2018-06-11T05:49:08.887Z,98.96
2018-06-11T05:50:09.443Z,99.44
2018-06-11T05:51:10.004Z,99.58
2018-06-11T05:52:10.565Z,99.35
2018-06-11T05:53:11.129Z,98.39
2018-06-11T05:54:11.689Z,98.00
2018-06-11T05:55:12.254Z,98.14
2018-06-11T05:56:12.815Z,97.57
2018-06-11T05:57:13.379Z,95.98
2018-06-11T05:58:13.938Z,96.70
2018-06-11T05:59:14.494Z,94.97
2018-06-11T06:00:15.060Z,93.15
2018-06-11T06:01:15.625Z,93.05
2018-06-11T06:02:16.186Z,92.23
2018-06-11T06:03:16.745Z,93.29
2018-06-11T06:04:17.309Z,93.82
2018-06-11T06:05:17.873Z,93.24
2018-06-11T06:06:18.433Z,93.00
2018-06-11T06:07:18.996Z,91.75
2018-06-11T06:08:19.560Z,91.27
2018-06-11T06:09:20.137Z,91.13
2018-06-11T06:10:20.689Z,91.22
2018-06-11T06:11:21.253Z,91.03
2018-06-11T06:12:21.816Z,91.03
2018-06-11T06:13:22.382Z,91.22
2018-06-11T06:14:22.938Z,91.89
2018-06-11T06:15:23.503Z,92.38
2018-06-11T06:16:24.069Z,92.08
2018-06-11T06:17:24.638Z,91.51
2018-06-11T06:18:25.201Z,91.51
2018-06-11T06:19:25.759Z,91.70
2018-06-11T06:20:26.322Z,92.18
2018-06-11T06:21:26.885Z,91.80
2018-06-11T06:22:27.451Z,91.75
2018-06-11T06:23:28.014Z,91.21
2018-06-11T06:24:28.583Z,89.62
2018-06-11T06:25:29.145Z,87.50
2018-06-11T06:26:29.710Z,86.63
2018-06-11T06:27:30.283Z,87.36
2018-06-11T06:28:30.844Z,88.23
2018-06-11T06:29:31.407Z,88.23
2018-06-11T06:30:31.974Z,88.81
2018-06-11T06:31:32.540Z,88.13
2018-06-11T06:32:33.105Z,88.32
2018-06-11T06:33:33.671Z,88.85
2018-06-11T06:34:34.330Z,88.27
2018-06-11T06:35:34.792Z,88.02
2018-06-11T06:36:35.362Z,86.86
2018-06-11T06:37:35.927Z,83.96
2018-06-11T06:38:36.489Z,82.65
2018-06-11T06:39:37.074Z,83.09
2018-06-11T06:40:37.638Z,83.09
2018-06-11T06:41:38.197Z,83.29
2018-06-11T06:42:38.755Z,83.19
2018-06-11T06:43:39.325Z,83.58
2018-06-11T06:44:39.892Z,82.81
2018-06-11T06:45:40.453Z,82.36
2018-06-11T06:46:41.018Z,82.17
2018-06-11T06:47:41.588Z,81.63
2018-06-11T06:48:42.154Z,79.93
2018-06-11T06:49:42.724Z,79.12
2018-06-11T06:50:43.290Z,79.80
2018-06-11T06:51:43.859Z,79.80
2018-06-11T06:52:44.427Z,79.80
2018-06-11T06:53:44.993Z,80.53
2018-06-11T06:54:45.549Z,81.68
2018-06-11T06:55:46.110Z,81.35
2018-06-11T06:56:46.678Z,82.90
2018-06-11T06:57:47.245Z,82.90
2018-06-11T06:58:47.812Z,82.90
2018-06-11T06:59:48.373Z,82.90
2018-06-11T07:00:48.940Z,82.23
2018-06-11T07:01:49.563Z,82.96
2018-06-11T07:02:50.068Z,83.92
2018-06-11T07:03:50.635Z,83.96
2018-06-11T07:04:51.205Z,83.87
2018-06-11T07:05:51.772Z,83.14
2018-06-11T07:06:52.345Z,81.92
2018-06-11T07:07:52.911Z,80.76
2018-06-11T07:08:53.481Z,79.99
2018-06-11T07:09:54.051Z,79.45
2018-06-11T07:10:54.617Z,79.00
2018-06-11T07:11:55.189Z,77.30
2018-06-11T07:12:55.749Z,76.62
2018-06-11T07:13:56.318Z,76.37
2018-06-11T07:14:56.890Z,75.89
2018-06-11T07:15:57.460Z,75.50
2018-06-11T07:16:58.033Z,74.92
2018-06-11T07:17:58.600Z,75.98
2018-06-11T07:18:59.171Z,76.18
2018-06-11T07:19:59.741Z,75.31
2018-06-11T07:21:00.310Z,75.33
2018-06-11T07:22:00.875Z,76.97
2018-06-11T07:23:01.443Z,76.87
2018-06-11T07:24:02.004Z,76.93
2018-06-11T07:25:02.573Z,77.48
2018-06-11T07:26:03.143Z,78.06
2018-06-11T07:27:03.769Z,78.25
2018-06-11T07:28:04.283Z,78.00
2018-06-11T07:29:04.848Z,78.19
2018-06-11T07:30:05.416Z,78.15
2018-06-11T07:31:05.984Z,78.64
2018-06-11T07:32:06.547Z,78.44
2018-06-11T07:33:07.115Z,79.89
2018-06-11T07:34:07.678Z,80.18
2018-06-11T07:35:08.252Z,79.74
2018-06-11T07:36:08.816Z,78.83
2018-06-11T07:37:09.384Z,78.58
2018-06-11T07:38:09.948Z,78.66
2018-06-11T07:39:10.515Z,77.30
2018-06-11T07:40:11.083Z,76.72
2018-06-11T07:41:11.646Z,75.89
2018-06-11T07:42:12.210Z,75.98
2018-06-11T07:43:12.773Z,75.89
2018-06-11T07:44:13.339Z,75.89
2018-06-11T07:45:13.940Z,75.50
2018-06-11T07:46:14.477Z,75.60
2018-06-11T07:47:15.043Z,75.63
2018-06-11T07:48:15.613Z,74.51
2018-06-11T07:49:16.179Z,72.89
2018-06-11T07:50:16.750Z,72.22
2018-06-11T07:51:17.323Z,72.35
2018-06-11T07:52:17.897Z,72.16
2018-06-11T07:53:18.463Z,71.44
2018-06-11T07:54:19.040Z,71.89
2018-06-11T07:55:19.604Z,72.44
2018-06-11T07:56:20.170Z,73.31
2018-06-11T07:57:20.741Z,73.35
2018-06-11T07:58:21.317Z,73.44
2018-06-11T07:59:21.883Z,72.47
2018-06-11T08:00:22.456Z,72.63
2018-06-11T08:01:23.030Z,72.71
2018-06-11T08:02:23.591Z,72.02
2018-06-11T08:03:24.164Z,72.22
2018-06-11T08:04:24.734Z,71.96
2018-06-11T08:05:25.306Z,72.02
2018-06-11T08:06:25.886Z,71.41
2018-06-11T08:07:26.495Z,72.67
2018-06-11T08:08:27.025Z,72.64
2018-06-11T08:09:27.600Z,71.12
2018-06-11T08:10:28.172Z,71.09
2018-06-11T08:11:28.743Z,71.38
2018-06-11T08:12:29.314Z,71.64
2018-06-11T08:13:29.967Z,72.44
2018-06-11T08:14:30.449Z,73.66
2018-06-11T08:15:31.019Z,74.53
2018-06-11T08:16:31.591Z,75.21
2018-06-11T08:17:32.158Z,74.98
2018-06-11T08:18:32.732Z,75.56
2018-06-11T08:19:33.301Z,76.14
2018-06-11T08:20:33.867Z,76.78
2018-06-11T08:21:34.436Z,77.51
2018-06-11T08:22:35.003Z,77.13
2018-06-11T08:23:35.572Z,77.42
2018-06-11T08:24:36.138Z,77.61
2018-06-11T08:25:36.707Z,77.13
2018-06-11T08:26:37.276Z,77.90
2018-06-11T08:27:37.856Z,77.75
2018-06-11T08:28:38.414Z,77.50
2018-06-11T08:29:38.979Z,77.20
2018-06-11T08:30:39.549Z,76.76
2018-06-11T08:31:40.116Z,76.46
2018-06-11T08:32:40.683Z,74.82
2018-06-11T08:33:41.253Z,74.53
2018-06-11T08:34:41.816Z,74.28
2018-06-11T08:35:42.383Z,74.12
2018-06-11T08:36:42.953Z,72.67
2018-06-11T08:37:43.522Z,71.89
2018-06-11T08:38:44.086Z,72.18
2018-06-11T08:39:44.653Z,72.28
2018-06-11T08:40:45.218Z,72.61
2018-06-11T08:41:45.793Z,72.22
2018-06-11T08:42:46.365Z,71.34
2018-06-11T08:43:46.932Z,71.54
2018-06-11T08:44:47.496Z,72.57
2018-06-11T08:45:48.068Z,73.02
2018-06-11T08:46:48.633Z,73.69
2018-06-11T08:47:49.200Z,72.96
2018-06-11T08:48:49.768Z,72.02
2018-06-11T08:49:50.337Z,71.54
2018-06-11T08:50:50.908Z,71.73
2018-06-11T08:51:51.480Z,72.02
2018-06-11T08:52:52.052Z,71.99
2018-06-11T08:53:52.639Z,72.63
2018-06-11T08:54:53.207Z,73.11
2018-06-11T08:55:53.788Z,73.31
2018-06-11T08:56:54.351Z,74.73
2018-06-11T08:57:54.923Z,73.89
2018-06-11T08:58:55.489Z,73.50
2018-06-11T08:59:56.107Z,73.60
2018-06-11T09:00:56.622Z,73.89
2018-06-11T09:01:57.188Z,73.69
2018-06-11T09:02:57.749Z,74.53
2018-06-11T09:03:58.322Z,74.53
2018-06-11T09:04:58.884Z,75.50
2018-06-11T09:05:59.446Z,75.17
2018-06-11T09:07:00.017Z,76.29
2018-06-11T09:08:00.582Z,77.11
2018-06-11T09:09:01.151Z,76.82
2018-06-11T09:10:01.720Z,76.14
2018-06-11T09:11:02.290Z,76.04
2018-06-11T09:12:02.853Z,76.24
2018-06-11T09:13:03.421Z,76.33
2018-06-11T09:14:03.995Z,76.62
2018-06-11T09:15:04.552Z,76.62
2018-06-11T09:16:05.122Z,76.72
2018-06-11T09:17:05.689Z,76.14
2018-06-11T09:18:06.266Z,76.04
2018-06-11T09:19:06.824Z,76.14
2018-06-11T09:20:07.394Z,76.43
2018-06-11T09:21:07.963Z,76.14
2018-06-11T09:22:08.537Z,75.31
2018-06-11T09:23:09.103Z,73.99
2018-06-11T09:24:09.684Z,73.83
2018-06-11T09:25:10.276Z,72.28
2018-06-11T09:26:10.850Z,71.83
2018-06-11T09:27:11.435Z,71.25
2018-06-11T09:28:12.024Z,71.34
2018-06-11T09:29:12.609Z,70.76
2018-06-11T09:30:13.177Z,70.96
2018-06-11T09:31:13.748Z,70.03
2018-06-11T09:32:14.312Z,69.83
2018-06-11T09:33:14.881Z,69.38
2018-06-11T09:34:15.452Z,70.21
2018-06-11T09:35:16.024Z,69.67
2018-06-11T09:36:16.593Z,67.79
2018-06-11T09:37:17.167Z,67.50
2018-06-11T09:38:17.822Z,67.54
2018-06-11T09:39:18.312Z,67.40
2018-06-11T09:40:18.886Z,67.89
2018-06-11T09:41:19.464Z,67.40
2018-06-11T09:42:20.042Z,67.34
2018-06-11T09:43:20.622Z,67.37
2018-06-11T09:44:21.198Z,66.60
2018-06-11T09:45:21.764Z,66.40
2018-06-11T09:46:22.451Z,65.75
2018-06-11T09:47:23.041Z,65.69
2018-06-11T09:48:23.602Z,64.62
2018-06-11T09:49:24.175Z,64.17
2018-06-11T09:50:24.752Z,63.75
2018-06-11T09:51:25.342Z,64.11
2018-06-11T09:52:25.917Z,64.07
2018-06-11T09:53:26.485Z,64.56
2018-06-11T09:54:27.051Z,64.98
2018-06-11T09:55:27.625Z,64.14
2018-06-11T09:56:28.192Z,64.36
2018-06-11T09:57:28.768Z,63.36
2018-06-11T09:58:29.349Z,63.45
2018-06-11T09:59:29.923Z,63.55
2018-06-11T10:00:30.502Z,64.30
2018-06-11T10:01:31.075Z,65.14
2018-06-11T10:02:31.666Z,65.14
2018-06-11T10:03:32.233Z,65.53
2018-06-11T10:04:32.815Z,65.37
2018-06-11T10:05:33.398Z,64.91
2018-06-11T10:06:33.972Z,64.53
2018-06-11T10:07:34.544Z,64.14
2018-06-11T10:08:35.117Z,63.97
2018-06-11T10:09:35.685Z,63.62
2018-06-11T10:10:36.263Z,62.90
2018-06-11T10:11:36.835Z,63.62
2018-06-11T10:12:37.409Z,62.64
2018-06-11T10:13:38.004Z,61.67
2018-06-11T10:14:38.562Z,60.79
2018-06-11T10:15:39.141Z,60.89
2018-06-11T10:16:39.708Z,60.50
2018-06-11T10:17:40.277Z,61.80
2018-06-11T10:18:40.856Z,60.70
2018-06-11T10:19:41.475Z,60.82
2018-06-11T10:20:42.047Z,60.44
2018-06-11T10:21:42.622Z,61.02
2018-06-11T10:22:43.190Z,61.71
2018-06-11T10:23:43.758Z,61.87
2018-06-11T10:24:44.328Z,63.26
2018-06-11T10:25:44.916Z,62.10
2018-06-11T10:26:45.512Z,62.55
2018-06-11T10:27:46.082Z,63.13
2018-06-11T10:28:46.647Z,63.04
2018-06-11T10:29:47.214Z,63.13
2018-06-11T10:30:47.795Z,63.13
2018-06-11T10:31:48.395Z,63.52
2018-06-11T10:32:48.977Z,63.32
2018-06-11T10:33:49.542Z,63.65
2018-06-11T10:34:50.125Z,64.01
2018-06-11T10:35:50.703Z,63.91
2018-06-11T10:36:51.288Z,64.04
2018-06-11T10:37:51.862Z,63.36
2018-06-11T10:38:52.459Z,63.65
2018-06-11T10:39:53.176Z,63.55
2018-06-11T10:40:53.756Z,64.14
2018-06-11T10:41:54.333Z,64.30
2018-06-11T10:42:54.905Z,64.91
2018-06-11T10:43:55.482Z,64.23
2018-06-11T10:44:56.054Z,64.14
2018-06-11T10:45:56.666Z,64.43
2018-06-11T10:46:57.256Z,64.04
2018-06-11T10:47:57.864Z,64.23
2018-06-11T10:48:58.473Z,62.55
2018-06-11T10:49:59.087Z,63.20
2018-06-11T10:50:59.701Z,63.88
2018-06-11T10:52:00.295Z,64.01
2018-06-11T10:53:00.878Z,64.11
2018-06-11T10:54:01.461Z,64.43
2018-06-11T10:55:02.039Z,64.14
2018-06-11T10:56:02.614Z,63.36
2018-06-11T10:57:03.189Z,62.23
2018-06-11T10:58:03.766Z,60.93
2018-06-11T10:59:04.333Z,61.12
2018-06-11T11:00:04.909Z,61.97
2018-06-11T11:01:05.486Z,62.16
2018-06-11T11:02:06.052Z,62.19
2018-06-11T11:03:06.638Z,61.54
2018-06-11T11:04:07.239Z,60.70
2018-06-11T11:05:07.838Z,60.99
2018-06-11T11:06:08.410Z,61.87
2018-06-11T11:07:08.978Z,61.70
2018-06-11T11:08:09.562Z,61.80
2018-06-11T11:09:10.132Z,61.83
2018-06-11T11:10:10.709Z,60.69
2018-06-11T11:12:26.736Z,59.59
2018-06-11T11:13:27.306Z,60.56
2018-06-11T11:14:27.912Z,59.30
2018-06-11T11:15:28.440Z,60.56
2018-06-11T11:16:29.016Z,59.36
2018-06-11T11:17:29.592Z,59.72
2018-06-11T11:18:30.179Z,60.82
2018-06-11T11:19:30.747Z,60.60
2018-06-11T11:20:31.319Z,60.31
2018-06-11T11:21:31.892Z,60.05
2018-06-11T11:22:32.467Z,59.95
2018-06-11T11:23:33.044Z,60.44
2018-06-11T11:24:33.611Z,60.72
2018-06-11T11:25:34.191Z,59.36
2018-06-11T11:26:34.768Z,58.29
2018-06-11T11:27:35.351Z,58.91
2018-06-11T11:28:35.930Z,58.91
2018-06-11T11:29:36.507Z,59.00
2018-06-11T11:30:37.073Z,59.52
2018-06-11T11:31:37.673Z,58.77
2018-06-11T11:32:38.231Z,58.35
2018-06-11T11:33:38.827Z,58.25
2018-06-11T11:34:39.383Z,56.82
2018-06-11T11:35:39.955Z,57.89
2018-06-11T11:36:40.532Z,57.18
2018-06-11T11:37:41.109Z,56.23
2018-06-11T11:38:41.695Z,56.11
2018-06-11T11:39:42.264Z,55.79
2018-06-11T11:40:42.836Z,55.60
2018-06-11T11:41:43.408Z,55.69
2018-06-11T11:42:43.980Z,55.33
2018-06-11T11:43:44.559Z,53.75
2018-06-11T11:44:45.134Z,53.16
2018-06-11T11:45:45.705Z,53.14
2018-06-11T11:46:46.270Z,54.76
2018-06-11T11:47:46.845Z,55.96
2018-06-11T11:48:47.426Z,55.27
2018-06-11T11:49:48.005Z,55.30
2018-06-11T11:50:48.579Z,56.09
2018-06-11T11:51:49.156Z,56.35
2018-06-11T11:52:49.744Z,56.67
2018-06-11T11:53:50.315Z,56.89
2018-06-11T11:54:50.888Z,56.43
2018-06-11T11:55:51.479Z,55.65
2018-06-11T11:56:52.053Z,54.90
2018-06-11T11:57:52.630Z,54.73
2018-06-11T11:58:53.212Z,52.80
2018-06-11T11:59:53.791Z,52.68
2018-06-11T12:00:54.358Z,53.56
2018-06-11T12:01:54.934Z,53.50
2018-06-11T12:02:55.503Z,53.41
2018-06-11T12:03:56.082Z,53.99
2018-06-11T12:04:56.662Z,54.65
2018-06-11T12:05:57.295Z,55.04
2018-06-11T12:06:57.923Z,55.13
2018-06-11T12:07:58.533Z,55.30
2018-06-11T12:08:59.161Z,56.35
2018-06-11T12:09:59.744Z,55.89
2018-06-11T12:11:00.403Z,56.05
2018-06-11T12:12:01.068Z,56.54
2018-06-11T12:13:01.785Z,57.12
2018-06-11T12:14:02.473Z,57.22
2018-06-11T12:15:03.086Z,56.35
2018-06-11T12:16:03.747Z,56.96
2018-06-11T12:17:04.391Z,56.54
2018-06-11T12:18:05.019Z,56.05
2018-06-11T12:19:05.719Z,56.09
2018-06-11T12:20:06.292Z,55.40
2018-06-11T12:21:06.921Z,55.13
2018-06-11T12:22:07.526Z,54.68
2018-06-11T12:23:08.158Z,54.28
2018-06-11T12:24:08.777Z,54.50
2018-06-11T12:25:09.425Z,54.19
2018-06-11T12:26:09.949Z,53.80
2018-06-11T12:27:10.536Z,53.89
2018-06-11T12:28:11.115Z,53.99
2018-06-11T12:29:11.682Z,54.09
2018-06-11T12:30:12.258Z,54.75
2018-06-11T12:31:12.833Z,55.65
2018-06-11T12:32:13.408Z,54.85
2018-06-11T12:33:14.040Z,55.72
2018-06-11T12:34:14.586Z,55.75
2018-06-11T12:35:15.150Z,55.16
2018-06-11T12:36:15.749Z,54.19
2018-06-11T12:37:16.334Z,54.70
2018-06-11T12:38:16.910Z,54.14
2018-06-11T12:39:17.487Z,54.02
2018-06-11T12:40:18.067Z,53.73
2018-06-11T12:41:18.653Z,53.41
2018-06-11T12:42:19.253Z,54.23
2018-06-11T12:43:19.833Z,54.58
2018-06-11T12:44:20.404Z,54.87
2018-06-11T12:45:20.979Z,55.01
2018-06-11T12:46:21.553Z,56.27
2018-06-11T12:47:22.142Z,55.79
2018-06-11T12:48:22.732Z,56.35
2018-06-11T12:49:23.311Z,57.12
2018-06-11T12:50:23.899Z,56.74
2018-06-11T12:51:24.487Z,56.45
2018-06-11T12:52:25.086Z,56.45
2018-06-11T12:53:25.663Z,56.81
2018-06-11T12:54:26.235Z,57.00
2018-06-11T12:55:26.804Z,57.87
2018-06-11T12:56:27.382Z,57.87
2018-06-11T12:57:27.954Z,57.56
2018-06-11T12:58:28.528Z,57.92
2018-06-11T12:59:29.103Z,57.85
2018-06-11T13:00:29.666Z,58.21
2018-06-11T13:01:30.231Z,58.21